Time;durP1;ratioP1;P1;durP2;ratioP2;P2;SDS_P1;SDS_P2;PMS_P1;PMS_P2;Temp;Humidity;BMP_temperature;BMP_pressure;BME280_temperature;BME280_humidity;BME280_pressure;Samples;Min_cycle;Max_cycle;Signal;HPM_P1;HPM_P2
2022/03/16 00:00:56;;;;;;;;;15.75;15.25;;;;;;;;5059365;28;48007;-88
2022/03/16 00:03:21;;;;;;;;;17.00;15.00;;;;;;;;5058604;28;45462;-88
2022/03/16 00:05:46;;;;;;;;;16.00;14.50;;;;;;;;5061283;28;45331;-88
2022/03/16 00:08:12;;;;;;;;;17.75;16.75;;;;;;;;5059574;28;45240;-87
2022/03/16 00:10:37;;;;;;;;;23.50;22.75;;;;;;;;5065098;28;46197;-87
2022/03/16 00:13:02;;;;;;;;;16.50;16.50;;;;;;;;5064876;28;45265;-86
2022/03/16 00:15:28;;;;;;;;;15.00;13.00;;;;;;;;5058749;28;45331;-87
2022/03/16 00:17:53;;;;;;;;;13.50;13.50;;;;;;;;5058246;28;45411;-86
2022/03/16 00:20:18;;;;;;;;;19.25;17.00;;;;;;;;5061838;28;46554;-87
2022/03/16 00:22:43;;;;;;;;;20.00;18.25;;;;;;;;5057184;28;45284;-87
2022/03/16 00:25:10;;;;;;;;;15.50;15.50;;;;;;;;5041590;28;45447;-87
2022/03/16 00:27:36;;;;;;;;;15.25;14.00;;;;;;;;5058004;28;45593;-86
2022/03/16 00:30:01;;;;;;;;;19.50;16.25;;;;;;;;5057787;28;46002;-87
2022/03/16 00:32:26;;;;;;;;;11.75;11.75;;;;;;;;5058852;28;45272;-86
2022/03/16 00:34:51;;;;;;;;;14.75;14.00;;;;;;;;5044810;28;45288;-86
2022/03/16 00:37:16;;;;;;;;;14.75;11.00;;;;;;;;5065075;28;45374;-85
2022/03/16 00:39:44;;;;;;;;;17.75;16.00;;;;;;;;5058229;28;45272;-86
2022/03/16 00:42:09;;;;;;;;;16.00;14.00;;;;;;;;5056754;28;45373;-85
2022/03/16 00:44:35;;;;;;;;;13.25;13.25;;;;;;;;5057802;28;45496;-87
2022/03/16 00:47:01;;;;;;;;;12.75;12.50;;;;;;;;5058635;28;45374;-87
2022/03/16 00:49:26;;;;;;;;;17.25;16.00;;;;;;;;5042104;28;45956;-87
2022/03/16 00:51:51;;;;;;;;;16.50;14.50;;;;;;;;5062996;28;45245;-87
2022/03/16 00:54:17;;;;;;;;;15.50;15.25;;;;;;;;5065974;28;45577;-87
2022/03/16 00:56:42;;;;;;;;;18.00;17.50;;;;;;;;5059144;28;45461;-86
2022/03/16 00:59:07;;;;;;;;;12.75;12.75;;;;;;;;5056019;28;46302;-87
2022/03/16 01:01:32;;;;;;;;;12.50;12.00;;;;;;;;5041933;28;45516;-87
2022/03/16 01:03:58;;;;;;;;;16.25;15.00;;;;;;;;5058014;28;45450;-87
2022/03/16 01:06:23;;;;;;;;;18.50;17.00;;;;;;;;5057101;28;45649;-86
2022/03/16 01:08:48;;;;;;;;;15.00;15.00;;;;;;;;5051128;28;45875;-87
2022/03/16 01:11:14;;;;;;;;;18.75;15.75;;;;;;;;5045140;28;45531;-87
2022/03/16 01:13:39;;;;;;;;;17.50;16.50;;;;;;;;5043143;28;45225;-87
2022/03/16 01:16:05;;;;;;;;;15.50;13.50;;;;;;;;5048326;28;45222;-87
2022/03/16 01:18:30;;;;;;;;;14.00;14.00;;;;;;;;5047080;28;45544;-87
2022/03/16 01:20:56;;;;;;;;;16.00;13.00;;;;;;;;5047132;28;45512;-85
2022/03/16 01:23:21;;;;;;;;;14.00;13.75;;;;;;;;5046630;28;45367;-87
2022/03/16 01:25:46;;;;;;;;;14.00;12.25;;;;;;;;5042788;28;45362;-87
2022/03/16 01:28:11;;;;;;;;;13.50;11.25;;;;;;;;5041161;28;45622;-87
2022/03/16 01:30:36;;;;;;;;;12.50;12.50;;;;;;;;5045989;28;45167;-87
2022/03/16 01:33:02;;;;;;;;;14.00;10.75;;;;;;;;5054959;28;45410;-87
2022/03/16 01:35:27;;;;;;;;;16.00;14.00;;;;;;;;5064805;28;45248;-86
2022/03/16 01:37:52;;;;;;;;;12.75;10.75;;;;;;;;5062334;28;45260;-87
2022/03/16 01:40:17;;;;;;;;;15.50;15.50;;;;;;;;5060962;28;45324;-87
2022/03/16 01:42:42;;;;;;;;;12.25;10.50;;;;;;;;5081946;28;45376;-87
2022/03/16 01:45:08;;;;;;;;;15.75;13.75;;;;;;;;5081038;28;44748;-87
2022/03/16 01:47:33;;;;;;;;;15.25;14.50;;;;;;;;5072733;28;45612;-87
2022/03/16 01:49:58;;;;;;;;;15.25;14.00;;;;;;;;5070399;28;44732;-86
2022/03/16 01:52:25;;;;;;;;;17.75;13.50;;;;;;;;5047310;28;45493;-87
2022/03/16 01:54:50;;;;;;;;;14.25;6.75;;;;;;;;5081912;28;45486;-86
2022/03/16 01:57:16;;;;;;;;;14.75;12.00;;;;;;;;5082334;28;46016;-87
2022/03/16 01:59:42;;;;;;;;;13.75;13.00;;;;;;;;5084210;28;44831;-87
2022/03/16 02:02:08;;;;;;;;;16.25;15.50;;;;;;;;5083748;28;44717;-87
2022/03/16 02:04:33;;;;;;;;;9.50;8.00;;;;;;;;5084600;28;45834;-87
2022/03/16 02:06:59;;;;;;;;;15.75;13.75;;;;;;;;5085136;28;46129;-87
2022/03/16 02:09:24;;;;;;;;;15.00;14.50;;;;;;;;5070942;28;45344;-86
2022/03/16 02:11:50;;;;;;;;;14.75;14.00;;;;;;;;5042531;28;45320;-85
2022/03/16 02:14:17;;;;;;;;;15.50;14.50;;;;;;;;5064247;28;45472;-87
2022/03/16 02:16:43;;;;;;;;;18.50;14.25;;;;;;;;5063854;28;46633;-86
2022/03/16 02:19:08;;;;;;;;;13.25;13.00;;;;;;;;5041024;28;45407;-86
2022/03/16 02:21:36;;;;;;;;;17.00;15.50;;;;;;;;5043815;28;45404;-85
2022/03/16 02:24:02;;;;;;;;;17.75;16.75;;;;;;;;5044085;28;45577;-86
2022/03/16 02:26:27;;;;;;;;;19.50;18.50;;;;;;;;5043657;28;46301;-87
2022/03/16 02:28:54;;;;;;;;;20.25;20.25;;;;;;;;5043087;28;45495;-86
2022/03/16 02:31:19;;;;;;;;;19.00;15.75;;;;;;;;5059173;28;45633;-86
2022/03/16 02:33:44;;;;;;;;;17.25;16.00;;;;;;;;5058246;28;45430;-86
2022/03/16 02:36:10;;;;;;;;;19.00;19.00;;;;;;;;5057575;28;46403;-87
2022/03/16 02:38:38;;;;;;;;;17.50;17.25;;;;;;;;5059458;28;45485;-87
2022/03/16 02:41:03;;;;;;;;;18.25;17.50;;;;;;;;5056839;28;45416;-86
2022/03/16 02:43:29;;;;;;;;;18.25;15.75;;;;;;;;5042371;28;45428;-86
2022/03/16 02:45:54;;;;;;;;;18.50;18.00;;;;;;;;5060268;28;46445;-86
2022/03/16 02:48:20;;;;;;;;;23.75;19.25;;;;;;;;5056267;28;45447;-86
2022/03/16 02:50:45;;;;;;;;;23.00;19.25;;;;;;;;5058014;28;45418;-86
2022/03/16 02:53:10;;;;;;;;;25.00;18.25;;;;;;;;5061409;28;45424;-86
2022/03/16 02:55:36;;;;;;;;;20.00;20.00;;;;;;;;5060231;28;46126;-87
2022/03/16 02:58:01;;;;;;;;;22.75;21.25;;;;;;;;5058633;28;45398;-88
2022/03/16 03:00:27;;;;;;;;;19.75;17.75;;;;;;;;5057145;28;45363;-88
2022/03/16 03:02:53;;;;;;;;;20.75;18.50;;;;;;;;5059662;28;45213;-88
2022/03/16 03:05:18;;;;;;;;;16.75;15.00;;;;;;;;5053015;28;46077;-86
2022/03/16 03:07:43;;;;;;;;;23.25;21.25;;;;;;;;5063024;28;45398;-86
2022/03/16 03:10:09;;;;;;;;;25.50;20.00;;;;;;;;5072565;28;45626;-87
2022/03/16 03:12:35;;;;;;;;;19.25;19.25;;;;;;;;5076918;28;45220;-88
2022/03/16 03:15:00;;;;;;;;;20.75;18.25;;;;;;;;5075531;28;46076;-87
2022/03/16 03:17:25;;;;;;;;;23.75;21.50;;;;;;;;5071974;28;45469;-87
2022/03/16 03:19:51;;;;;;;;;26.00;21.25;;;;;;;;5071417;28;44780;-86
2022/03/16 03:22:16;;;;;;;;;22.50;19.00;;;;;;;;5070895;28;46260;-87
2022/03/16 03:24:44;;;;;;;;;24.00;20.25;;;;;;;;5076667;28;45027;-85
2022/03/16 03:27:09;;;;;;;;;22.75;19.25;;;;;;;;5067537;28;45318;-88
2022/03/16 03:29:34;;;;;;;;;17.50;16.25;;;;;;;;5063694;28;44724;-87
2022/03/16 03:31:59;;;;;;;;;22.00;21.50;;;;;;;;5042034;28;45336;-86
2022/03/16 03:34:25;;;;;;;;;26.25;25.00;;;;;;;;5070791;28;47235;-86
2022/03/16 03:36:50;;;;;;;;;21.00;19.00;;;;;;;;5057319;28;45261;-87
2022/03/16 03:39:15;;;;;;;;;23.50;20.75;;;;;;;;5073392;28;44882;-88
2022/03/16 03:41:40;;;;;;;;;22.25;19.50;;;;;;;;5065603;28;44801;-86
2022/03/16 03:44:06;;;;;;;;;19.25;17.00;;;;;;;;5056534;28;45293;-87
2022/03/16 03:46:31;;;;;;;;;24.00;21.75;;;;;;;;5064445;28;45262;-85
2022/03/16 03:48:56;;;;;;;;;22.75;18.25;;;;;;;;5061241;28;45281;-85
2022/03/16 03:51:21;;;;;;;;;26.00;25.00;;;;;;;;5048872;28;45335;-85
2022/03/16 03:53:47;;;;;;;;;22.25;18.00;;;;;;;;5054909;28;46843;-85
2022/03/16 03:56:12;;;;;;;;;23.50;18.50;;;;;;;;5062249;28;45591;-87
2022/03/16 03:58:38;;;;;;;;;21.25;18.25;;;;;;;;5062333;28;47175;-87
2022/03/16 04:01:05;;;;;;;;;19.75;17.25;;;;;;;;5060691;28;45524;-87
2022/03/16 04:03:30;;;;;;;;;25.50;23.50;;;;;;;;5041626;28;47248;-87
2022/03/16 04:05:56;;;;;;;;;26.75;20.50;;;;;;;;5042565;28;45642;-87
2022/03/16 04:08:21;;;;;;;;;22.25;20.00;;;;;;;;5045287;28;45258;-86
2022/03/16 04:10:46;;;;;;;;;28.00;23.25;;;;;;;;5056515;28;45618;-87
2022/03/16 04:13:12;;;;;;;;;21.75;20.75;;;;;;;;5040916;28;47161;-87
2022/03/16 04:15:37;;;;;;;;;23.25;23.25;;;;;;;;5044430;28;45317;-86
2022/03/16 04:18:02;;;;;;;;;26.25;23.00;;;;;;;;5053467;28;45497;-86
2022/03/16 04:20:27;;;;;;;;;25.00;24.00;;;;;;;;5057115;28;45221;-87
2022/03/16 04:22:53;;;;;;;;;29.75;24.75;;;;;;;;5056878;28;45962;-87
2022/03/16 04:25:18;;;;;;;;;27.00;23.25;;;;;;;;5056959;28;45371;-86
2022/03/16 04:27:43;;;;;;;;;24.50;22.25;;;;;;;;5057471;28;45545;-86
2022/03/16 04:30:09;;;;;;;;;27.50;23.00;;;;;;;;5056857;28;45379;-87
2022/03/16 04:32:34;;;;;;;;;24.50;20.25;;;;;;;;5055858;28;46677;-87
2022/03/16 04:34:59;;;;;;;;;29.25;24.50;;;;;;;;5056284;28;45374;-86
2022/03/16 04:37:25;;;;;;;;;25.50;23.25;;;;;;;;5041374;28;45470;-86
2022/03/16 04:39:50;;;;;;;;;22.25;22.00;;;;;;;;5042803;28;45303;-86
2022/03/16 04:42:25;;;;;;;;;30.00;26.00;;;;;;;;5070052;28;45266;-87
2022/03/16 04:44:53;;;;;;;;;22.00;20.00;;;;;;;;5056869;28;45406;-87
2022/03/16 04:47:28;;;;;;;;;20.50;17.75;;;;;;;;5074944;28;45234;-87
2022/03/16 04:49:56;;;;;;;;;26.00;25.50;;;;;;;;5054772;28;45235;-86
2022/03/16 04:52:25;;;;;;;;;24.75;21.75;;;;;;;;5072067;28;45317;-87
2022/03/16 04:54:50;;;;;;;;;27.00;23.75;;;;;;;;5072875;28;45221;-87
2022/03/16 04:57:18;;;;;;;;;28.25;25.25;;;;;;;;5052718;28;46173;-87
2022/03/16 04:59:46;;;;;;;;;25.50;24.25;;;;;;;;5072092;28;45568;-86
2022/03/16 05:02:11;;;;;;;;;27.00;24.25;;;;;;;;5071725;28;45224;-88
2022/03/16 05:04:39;;;;;;;;;24.50;24.50;;;;;;;;5071789;28;45283;-87
2022/03/16 05:07:05;;;;;;;;;25.00;23.00;;;;;;;;5053131;28;45385;-87
2022/03/16 05:09:33;;;;;;;;;25.00;23.00;;;;;;;;5069426;28;44798;-87
2022/03/16 05:11:58;;;;;;;;;25.25;20.25;;;;;;;;5070844;28;46348;-87
2022/03/16 05:14:26;;;;;;;;;31.50;27.50;;;;;;;;5053193;28;44811;-88
2022/03/16 05:16:53;;;;;;;;;29.75;27.50;;;;;;;;5052733;28;45257;-87
2022/03/16 05:19:23;;;;;;;;;31.25;28.25;;;;;;;;5065296;28;45477;-88
2022/03/16 05:21:49;;;;;;;;;29.25;26.75;;;;;;;;5062218;28;45387;-86
2022/03/16 05:24:14;;;;;;;;;29.50;27.00;;;;;;;;5061981;28;45666;-87
2022/03/16 05:26:39;;;;;;;;;23.00;22.25;;;;;;;;5059953;28;45520;-86
2022/03/16 05:29:05;;;;;;;;;30.75;27.50;;;;;;;;5063923;28;45443;-87
2022/03/16 05:31:30;;;;;;;;;30.50;26.50;;;;;;;;5063125;28;45395;-87
2022/03/16 05:33:56;;;;;;;;;34.00;27.00;;;;;;;;5042417;28;45293;-87
2022/03/16 05:36:21;;;;;;;;;29.75;25.50;;;;;;;;5041332;28;45563;-86
2022/03/16 05:38:46;;;;;;;;;32.50;26.00;;;;;;;;5051659;28;45602;-86
2022/03/16 05:41:14;;;;;;;;;30.00;25.00;;;;;;;;5048072;28;45558;-85
2022/03/16 05:43:39;;;;;;;;;32.25;30.75;;;;;;;;5055864;28;45282;-86
2022/03/16 05:46:04;;;;;;;;;24.00;24.00;;;;;;;;5040798;28;45353;-85
2022/03/16 05:48:30;;;;;;;;;25.50;24.00;;;;;;;;5059725;28;45498;-86
2022/03/16 05:50:55;;;;;;;;;23.75;21.25;;;;;;;;5058237;28;46497;-86
2022/03/16 05:53:20;;;;;;;;;27.75;25.00;;;;;;;;5059266;28;45391;-86
2022/03/16 05:55:45;;;;;;;;;28.25;24.50;;;;;;;;5057896;28;45434;-87
2022/03/16 05:58:11;;;;;;;;;24.00;22.75;;;;;;;;5039843;28;45357;-88
2022/03/16 06:00:37;;;;;;;;;29.75;23.50;;;;;;;;5057455;28;47418;-86
2022/03/16 06:03:03;;;;;;;;;26.50;25.00;;;;;;;;5058018;28;45374;-87
2022/03/16 06:05:30;;;;;;;;;30.00;27.75;;;;;;;;5052936;28;45538;-78
2022/03/16 06:07:55;;;;;;;;;29.50;27.00;;;;;;;;5041503;28;45486;-77
2022/03/16 06:10:20;;;;;;;;;30.00;28.75;;;;;;;;5054279;28;45467;-76
2022/03/16 06:12:56;;;;;;;;;31.00;25.00;;;;;;;;5054538;28;45536;-77
2022/03/16 06:15:21;;;;;;;;;29.25;26.50;;;;;;;;5055851;28;45347;-77
2022/03/16 06:17:47;;;;;;;;;27.75;26.25;;;;;;;;5056172;28;45506;-77
2022/03/16 06:20:12;;;;;;;;;21.50;20.50;;;;;;;;5053198;28;46878;-76
2022/03/16 06:22:37;;;;;;;;;30.50;26.75;;;;;;;;5053687;28;45371;-77
2022/03/16 06:25:02;;;;;;;;;29.50;27.25;;;;;;;;5053993;28;45340;-77
2022/03/16 06:27:28;;;;;;;;;35.75;33.00;;;;;;;;5053756;28;45205;-77
2022/03/16 06:29:53;;;;;;;;;33.50;27.50;;;;;;;;5046187;28;46283;-78
2022/03/16 06:32:19;;;;;;;;;27.50;24.50;;;;;;;;5043620;28;45428;-83
2022/03/16 06:34:46;;;;;;;;;32.00;28.00;;;;;;;;5036135;28;45500;-82
2022/03/16 06:37:12;;;;;;;;;31.50;27.25;;;;;;;;5053759;28;45470;-82
2022/03/16 06:39:37;;;;;;;;;31.75;30.50;;;;;;;;5053984;28;46171;-81
2022/03/16 06:42:03;;;;;;;;;30.25;28.00;;;;;;;;5052814;28;45452;-80
2022/03/16 06:44:28;;;;;;;;;34.25;30.25;;;;;;;;5052818;28;45380;-79
2022/03/16 06:46:54;;;;;;;;;29.25;26.00;;;;;;;;5053301;28;45389;-80
2022/03/16 06:49:19;;;;;;;;;25.00;25.00;;;;;;;;5037015;28;45977;-80
2022/03/16 06:51:44;;;;;;;;;29.50;27.75;;;;;;;;5053589;28;45370;-81
2022/03/16 06:54:09;;;;;;;;;29.00;23.75;;;;;;;;5053143;28;45543;-81
2022/03/16 06:56:34;;;;;;;;;29.75;25.75;;;;;;;;5053405;28;45559;-78
2022/03/16 06:58:59;;;;;;;;;29.00;26.00;;;;;;;;5052275;28;46035;-80
2022/03/16 07:01:25;;;;;;;;;30.25;30.25;;;;;;;;5052852;28;45520;-80
2022/03/16 07:03:50;;;;;;;;;28.75;24.75;;;;;;;;5035347;28;45443;-79
2022/03/16 07:06:15;;;;;;;;;30.00;25.25;;;;;;;;5052761;28;47469;-76
2022/03/16 07:08:40;;;;;;;;;30.00;27.25;;;;;;;;5053091;28;46555;-77
2022/03/16 07:11:07;;;;;;;;;24.25;20.75;;;;;;;;5054403;28;45457;-80
2022/03/16 07:13:33;;;;;;;;;34.00;30.75;;;;;;;;5035579;28;45461;-80
2022/03/16 07:15:58;;;;;;;;;31.25;28.75;;;;;;;;5052890;28;45389;-79
2022/03/16 07:18:23;;;;;;;;;36.75;30.50;;;;;;;;5052275;28;45349;-80
2022/03/16 07:20:49;;;;;;;;;32.25;27.75;;;;;;;;5051493;28;45301;-80
2022/03/16 07:23:15;;;;;;;;;37.25;29.50;;;;;;;;5052570;28;45533;-80
2022/03/16 07:25:42;;;;;;;;;30.00;28.00;;;;;;;;5052580;28;46432;-79
2022/03/16 07:28:08;;;;;;;;;31.50;28.00;;;;;;;;5036172;28;46165;-79
2022/03/16 07:30:34;;;;;;;;;30.75;27.25;;;;;;;;5052638;28;45610;-81
2022/03/16 07:32:59;;;;;;;;;28.00;26.25;;;;;;;;5051970;28;45285;-81
2022/03/16 07:35:26;;;;;;;;;29.50;27.00;;;;;;;;5051642;28;45297;-80
2022/03/16 07:37:53;;;;;;;;;30.75;27.50;;;;;;;;5051733;28;46307;-80
2022/03/16 07:40:18;;;;;;;;;29.75;27.00;;;;;;;;5052258;28;45478;-80
2022/03/16 07:42:44;;;;;;;;;30.50;29.00;;;;;;;;5052264;28;45308;-78
2022/03/16 07:45:10;;;;;;;;;28.75;24.00;;;;;;;;5053557;28;45498;-81
2022/03/16 07:47:35;;;;;;;;;31.00;28.00;;;;;;;;5053767;28;46166;-79
2022/03/16 07:50:00;;;;;;;;;35.00;31.50;;;;;;;;5046846;28;45381;-81
2022/03/16 07:52:25;;;;;;;;;36.75;31.25;;;;;;;;5043378;28;45470;-81
2022/03/16 07:54:51;;;;;;;;;31.75;28.50;;;;;;;;5043707;28;45320;-81
2022/03/16 07:57:16;;;;;;;;;36.25;31.75;;;;;;;;5038487;28;46761;-81
2022/03/16 07:59:42;;;;;;;;;26.50;24.25;;;;;;;;5053074;28;46767;-82
2022/03/16 08:02:07;;;;;;;;;32.75;29.75;;;;;;;;5045364;28;45809;-81
2022/03/16 08:04:32;;;;;;;;;37.25;29.50;;;;;;;;5055706;28;45385;-82
2022/03/16 08:06:57;;;;;;;;;34.75;30.75;;;;;;;;5055957;28;47293;-81
2022/03/16 08:09:22;;;;;;;;;29.50;29.50;;;;;;;;5055751;28;45317;-81
2022/03/16 08:11:47;;;;;;;;;31.00;30.00;;;;;;;;5054600;28;45511;-81
2022/03/16 08:14:13;;;;;;;;;32.25;29.75;;;;;;;;5054174;28;45442;-80
2022/03/16 08:16:38;;;;;;;;;29.50;28.25;;;;;;;;5042143;28;45490;-81
2022/03/16 08:19:04;;;;;;;;;27.75;27.50;;;;;;;;5058504;28;45367;-80
2022/03/16 08:21:29;;;;;;;;;34.50;31.25;;;;;;;;5058610;28;45528;-79
2022/03/16 08:23:54;;;;;;;;;34.50;30.25;;;;;;;;5057372;28;45441;-81
2022/03/16 08:26:21;;;;;;;;;34.00;30.75;;;;;;;;5054419;28;45583;-81
2022/03/16 08:28:46;;;;;;;;;35.25;32.25;;;;;;;;5024819;28;45372;-82
2022/03/16 08:31:11;;;;;;;;;33.75;29.00;;;;;;;;5058141;28;45442;-81
2022/03/16 08:33:37;;;;;;;;;27.25;24.25;;;;;;;;5056247;28;45352;-81
2022/03/16 08:36:07;;;;;;;;;29.25;27.00;;;;;;;;5046778;28;46288;-80
2022/03/16 08:38:32;;;;;;;;;34.25;30.25;;;;;;;;5047070;28;45365;-80
2022/03/16 08:40:58;;;;;;;;;30.00;28.00;;;;;;;;5055415;28;45430;-81
2022/03/16 08:43:23;;;;;;;;;35.75;32.75;;;;;;;;5055379;28;45403;-80
2022/03/16 08:45:48;;;;;;;;;35.25;29.75;;;;;;;;5055942;28;45443;-81
2022/03/16 08:48:14;;;;;;;;;33.50;31.50;;;;;;;;5045418;28;45469;-81
2022/03/16 08:50:40;;;;;;;;;34.75;31.50;;;;;;;;5048999;28;45655;-81
2022/03/16 08:53:05;;;;;;;;;31.75;26.75;;;;;;;;5054657;28;45533;-81
2022/03/16 08:55:30;;;;;;;;;32.75;30.25;;;;;;;;5054461;28;47105;-81
2022/03/16 08:57:57;;;;;;;;;29.50;27.50;;;;;;;;5055495;28;45379;-81
2022/03/16 09:00:23;;;;;;;;;28.50;26.00;;;;;;;;5043941;28;45305;-81
2022/03/16 09:02:48;;;;;;;;;31.75;29.25;;;;;;;;5044294;28;45473;-80
2022/03/16 09:05:15;;;;;;;;;29.00;26.75;;;;;;;;5044627;28;45522;-81
2022/03/16 09:07:40;;;;;;;;;34.00;30.00;;;;;;;;5023431;28;45412;-80
2022/03/16 09:10:06;;;;;;;;;32.75;31.00;;;;;;;;5056906;28;45464;-80
2022/03/16 09:12:32;;;;;;;;;27.25;25.00;;;;;;;;5064945;28;45270;-79
2022/03/16 09:14:57;;;;;;;;;34.25;31.00;;;;;;;;5066097;28;46171;-81
2022/03/16 09:17:22;;;;;;;;;31.75;30.25;;;;;;;;5063691;28;45657;-81
2022/03/16 09:19:48;;;;;;;;;35.50;32.50;;;;;;;;5054384;28;45486;-82
2022/03/16 09:22:14;;;;;;;;;33.75;31.00;;;;;;;;5054066;28;45505;-81
2022/03/16 09:24:39;;;;;;;;;38.75;31.00;;;;;;;;5042041;28;47159;-81
2022/03/16 09:27:05;;;;;;;;;36.00;31.50;;;;;;;;5051155;28;45419;-81
2022/03/16 09:29:30;;;;;;;;;34.75;31.75;;;;;;;;5054143;28;45337;-82
2022/03/16 09:31:56;;;;;;;;;38.00;33.50;;;;;;;;5054053;28;45370;-80
2022/03/16 09:34:22;;;;;;;;;42.25;34.25;;;;;;;;5054095;28;47541;-81
2022/03/16 09:36:47;;;;;;;;;35.50;29.50;;;;;;;;5053704;28;45502;-81
2022/03/16 09:39:13;;;;;;;;;35.25;31.00;;;;;;;;5044752;28;45304;-81
2022/03/16 09:41:38;;;;;;;;;36.75;33.00;;;;;;;;5047323;28;45400;-81
2022/03/16 09:44:04;;;;;;;;;30.75;29.00;;;;;;;;5053786;28;45959;-82
2022/03/16 09:46:31;;;;;;;;;44.75;34.00;;;;;;;;5037682;28;45414;-81
2022/03/16 09:48:56;;;;;;;;;35.75;32.25;;;;;;;;5054793;28;45383;-81
2022/03/16 09:51:22;;;;;;;;;37.50;33.00;;;;;;;;5052840;28;45666;-82
2022/03/16 09:53:47;;;;;;;;;46.50;36.00;;;;;;;;5052736;28;47401;-81
2022/03/16 09:56:12;;;;;;;;;39.00;32.25;;;;;;;;5053404;28;45307;-81
2022/03/16 09:58:38;;;;;;;;;40.00;32.50;;;;;;;;5054387;28;45289;-81
2022/03/16 10:01:05;;;;;;;;;35.50;31.75;;;;;;;;5038664;28;45407;-79
2022/03/16 10:03:30;;;;;;;;;32.50;31.00;;;;;;;;5054031;28;46553;-81
2022/03/16 10:05:57;;;;;;;;;37.50;32.25;;;;;;;;5034682;28;45919;-81
2022/03/16 10:08:30;;;;;;;;;37.50;33.50;;;;;;;;5050795;28;45428;-81
2022/03/16 10:13:51;;;;;;;;;37.75;31.25;;;;;;;;5077073;28;45435;-80
2022/03/16 10:16:16;;;;;;;;;31.25;29.50;;;;;;;;5078709;28;44953;-81
2022/03/16 10:18:46;;;;;;;;;38.25;33.50;;;;;;;;5058200;28;45308;-82
2022/03/16 10:21:11;;;;;;;;;43.00;36.25;;;;;;;;5057600;28;45378;-80
2022/03/16 10:23:37;;;;;;;;;37.75;33.00;;;;;;;;5042259;28;46562;-80
2022/03/16 10:26:03;;;;;;;;;54.50;44.75;;;;;;;;5042458;28;45586;-81
2022/03/16 10:28:29;;;;;;;;;38.00;33.00;;;;;;;;5037530;28;45303;-79
2022/03/16 10:30:58;;;;;;;;;40.25;33.25;;;;;;;;5054138;28;45360;-81
2022/03/16 10:33:29;;;;;;;;;33.50;31.75;;;;;;;;5053297;28;45235;-82
2022/03/16 10:36:00;;;;;;;;;35.00;33.50;;;;;;;;5060642;28;45821;-80
2022/03/16 10:38:26;;;;;;;;;43.00;39.25;;;;;;;;5062810;28;45315;-79
2022/03/16 10:40:53;;;;;;;;;45.25;38.00;;;;;;;;5053684;28;45460;-80
2022/03/16 10:48:59;;;;;;;;;38.00;34.50;;;;;;;;5056753;28;45553;-81
2022/03/16 10:51:24;;;;;;;;;44.75;36.25;;;;;;;;5052834;28;45648;-81
2022/03/16 10:53:52;;;;;;;;;38.25;32.50;;;;;;;;5047010;28;46521;-81
2022/03/16 10:56:18;;;;;;;;;43.00;34.50;;;;;;;;5044191;28;45526;-82
2022/03/16 10:58:45;;;;;;;;;50.25;39.00;;;;;;;;5054794;28;45259;-79
2022/03/16 11:01:12;;;;;;;;;43.75;34.75;;;;;;;;5041355;28;45374;-80
2022/03/16 11:03:38;;;;;;;;;41.50;35.50;;;;;;;;5041307;28;46529;-81
2022/03/16 11:06:03;;;;;;;;;41.00;36.75;;;;;;;;5049764;28;45447;-82
2022/03/16 11:08:35;;;;;;;;;62.75;50.00;;;;;;;;5053257;28;45426;-82
2022/03/16 11:13:27;;;;;;;;;34.00;30.25;;;;;;;;5053186;28;45347;-81
2022/03/16 11:13:48;;;;;;;;;41.50;34.50;;;;;;;;5038592;28;46129;-82
2022/03/16 11:16:14;;;;;;;;;42.25;35.00;;;;;;;;5052875;28;45546;-81
2022/03/16 11:18:39;;;;;;;;;40.00;35.00;;;;;;;;5053375;28;45252;-82
2022/03/16 11:21:09;;;;;;;;;43.50;34.50;;;;;;;;5057634;28;45431;-81
2022/03/16 11:26:38;;;;;;;;;49.00;39.50;;;;;;;;5059154;28;45288;-81
2022/03/16 11:29:15;;;;;;;;;43.75;37.50;;;;;;;;5059174;28;45299;-81
2022/03/16 11:31:42;;;;;;;;;46.25;37.25;;;;;;;;5044675;28;45303;-82
2022/03/16 11:34:10;;;;;;;;;48.50;37.00;;;;;;;;5058778;28;46344;-81
2022/03/16 11:36:42;;;;;;;;;47.75;42.00;;;;;;;;5060923;28;45234;-81
2022/03/16 11:39:18;;;;;;;;;52.00;40.50;;;;;;;;5051018;28;45384;-81
2022/03/16 11:41:53;;;;;;;;;37.00;32.25;;;;;;;;5052492;28;45511;-81
2022/03/16 11:44:28;;;;;;;;;57.25;48.00;;;;;;;;5058681;28;45615;-80
2022/03/16 11:46:55;;;;;;;;;51.25;42.25;;;;;;;;5058853;28;45317;-81
2022/03/16 11:49:26;;;;;;;;;35.75;31.25;;;;;;;;5039658;28;45306;-81
2022/03/16 11:51:58;;;;;;;;;50.25;42.00;;;;;;;;5058633;28;45359;-81
2022/03/16 11:54:38;;;;;;;;;44.00;36.50;;;;;;;;5047141;28;47569;-80
2022/03/16 11:57:04;;;;;;;;;86.50;67.75;;;;;;;;5054391;28;45335;-81
2022/03/16 11:59:31;;;;;;;;;49.25;39.00;;;;;;;;5058743;28;45442;-81
2022/03/16 12:02:17;;;;;;;;;42.50;35.25;;;;;;;;5057913;28;45326;-80
2022/03/16 12:04:45;;;;;;;;;38.25;34.50;;;;;;;;5058169;28;45757;-81
2022/03/16 12:07:12;;;;;;;;;40.00;35.50;;;;;;;;5058689;28;45384;-81
2022/03/16 12:09:40;;;;;;;;;44.25;36.50;;;;;;;;5057703;28;45405;-81
2022/03/16 12:15:11;;;;;;;;;43.75;37.75;;;;;;;;5046805;28;45495;-80
2022/03/16 12:17:37;;;;;;;;;40.00;34.50;;;;;;;;5049520;28;45484;-80
2022/03/16 12:20:14;;;;;;;;;42.25;33.25;;;;;;;;5057156;28;45265;-80
2022/03/16 12:22:45;;;;;;;;;35.50;31.25;;;;;;;;5040647;28;45494;-81
2022/03/16 12:25:29;;;;;;;;;35.75;34.25;;;;;;;;5039049;28;46493;-81
2022/03/16 12:30:43;;;;;;;;;53.75;43.00;;;;;;;;5043627;28;45431;-81
2022/03/16 12:33:22;;;;;;;;;49.75;38.00;;;;;;;;5044604;28;45493;-81
2022/03/16 12:35:48;;;;;;;;;37.00;32.75;;;;;;;;5045637;28;47367;-81
2022/03/16 12:38:13;;;;;;;;;30.50;30.50;;;;;;;;5046051;28;45474;-80
2022/03/16 12:42:31;;;;;;;;;41.00;36.00;;;;;;;;5056467;28;45409;-80
2022/03/16 12:43:27;;;;;;;;;44.75;36.25;;;;;;;;5038933;28;45531;-82
2022/03/16 12:46:00;;;;;;;;;42.75;33.75;;;;;;;;5055435;28;46280;-80
2022/03/16 12:48:26;;;;;;;;;36.25;35.00;;;;;;;;5054663;28;45352;-81
2022/03/16 12:50:51;;;;;;;;;36.25;34.50;;;;;;;;5054699;28;45499;-81
2022/03/16 12:53:32;;;;;;;;;41.00;34.00;;;;;;;;5054527;28;46742;-81
2022/03/16 12:55:57;;;;;;;;;32.50;31.25;;;;;;;;5060517;28;46392;-81
2022/03/16 12:58:23;;;;;;;;;33.75;28.25;;;;;;;;5060509;28;45351;-81
2022/03/16 13:00:57;;;;;;;;;32.50;30.00;;;;;;;;5059215;28;45379;-81
2022/03/16 13:03:22;;;;;;;;;31.25;26.50;;;;;;;;5057050;28;46246;-81
2022/03/16 13:05:49;;;;;;;;;37.25;33.00;;;;;;;;5056498;28;45632;-81
2022/03/16 13:08:16;;;;;;;;;44.00;36.50;;;;;;;;5056207;28;45439;-80
2022/03/16 13:13:27;;;;;;;;;31.00;29.00;;;;;;;;5054743;28;45445;-81
2022/03/16 13:15:53;;;;;;;;;35.75;32.50;;;;;;;;5054553;28;46936;-81
2022/03/16 13:18:28;;;;;;;;;22.75;20.75;;;;;;;;5026685;28;45782;-80
2022/03/16 13:20:54;;;;;;;;;23.25;22.75;;;;;;;;5050123;28;45308;-80
2022/03/16 13:23:28;;;;;;;;;27.75;23.50;;;;;;;;5052632;28;45458;-81
2022/03/16 13:26:05;;;;;;;;;30.50;28.25;;;;;;;;5040327;28;45779;-80
2022/03/16 13:28:31;;;;;;;;;32.75;29.25;;;;;;;;5037694;28;45304;-80
2022/03/16 13:30:56;;;;;;;;;30.75;23.75;;;;;;;;5055493;28;45294;-81
2022/03/16 13:33:24;;;;;;;;;33.50;29.50;;;;;;;;5036945;28;45480;-80
2022/03/16 13:35:49;;;;;;;;;32.00;22.25;;;;;;;;5054749;28;46592;-81
2022/03/16 13:38:28;;;;;;;;;21.75;19.75;;;;;;;;5054958;28;45257;-80
2022/03/16 13:40:53;;;;;;;;;29.25;24.25;;;;;;;;5056955;28;45291;-81
2022/03/16 13:43:20;;;;;;;;;32.50;28.00;;;;;;;;5041147;28;45294;-81
2022/03/16 13:45:48;;;;;;;;;39.00;34.25;;;;;;;;5057088;28;46735;-80
2022/03/16 13:48:14;;;;;;;;;26.00;25.00;;;;;;;;5055553;28;45525;-81
2022/03/16 13:50:41;;;;;;;;;24.50;21.75;;;;;;;;5055149;28;45394;-82
2022/03/16 13:53:15;;;;;;;;;29.75;24.75;;;;;;;;5054775;28;45456;-82
2022/03/16 13:55:41;;;;;;;;;22.75;15.50;;;;;;;;5054965;28;46132;-82
2022/03/16 13:58:11;;;;;;;;;26.25;22.75;;;;;;;;5053748;28;45440;-80
2022/03/16 14:00:44;;;;;;;;;22.50;19.50;;;;;;;;5041154;28;45401;-80
2022/03/16 14:03:11;;;;;;;;;33.00;31.00;;;;;;;;5051241;28;45680;-82
2022/03/16 14:05:39;;;;;;;;;22.50;20.75;;;;;;;;5053081;28;47248;-82
2022/03/16 14:08:09;;;;;;;;;25.50;24.00;;;;;;;;5053471;28;45476;-81
2022/03/16 14:10:35;;;;;;;;;33.50;27.75;;;;;;;;5038424;28;45443;-81
2022/03/16 14:13:04;;;;;;;;;25.25;23.75;;;;;;;;5038461;28;45394;-81
2022/03/16 14:15:29;;;;;;;;;24.75;21.50;;;;;;;;5042168;28;45623;-82
2022/03/16 14:17:57;;;;;;;;;22.00;22.00;;;;;;;;5042964;28;45404;-81
2022/03/16 14:20:29;;;;;;;;;20.50;19.00;;;;;;;;5044847;28;45305;-81
2022/03/16 14:22:55;;;;;;;;;19.75;18.25;;;;;;;;5053822;28;45358;-82
2022/03/16 14:25:26;;;;;;;;;22.50;20.50;;;;;;;;5053162;28;46302;-82
2022/03/16 14:27:53;;;;;;;;;19.25;16.50;;;;;;;;5054058;28;45398;-81
2022/03/16 14:30:18;;;;;;;;;14.50;14.00;;;;;;;;5054210;28;45617;-81
2022/03/16 14:32:47;;;;;;;;;18.50;16.25;;;;;;;;5053659;28;45319;-81